sensor_id;sensor_type;location;lat;lon;timestamp;pressure;altitude;pressure_sealevel;temperature;humidity
10712;BME280;5407;51.234;6.804;2024-02-26T00:02:07;99293.97;;;10.01;65.08
10712;BME280;5407;51.234;6.804;2024-02-26T00:04:34;99280.22;;;10.13;64.58
10712;BME280;5407;51.234;6.804;2024-02-26T00:07:01;99292.59;;;10.21;64.57
10712;BME280;5407;51.234;6.804;2024-02-26T00:09:28;99301.03;;;10.19;64.83
10712;BME280;5407;51.234;6.804;2024-02-26T00:11:55;99304.41;;;10.10;65.28
10712;BME280;5407;51.234;6.804;2024-02-26T00:14:23;99289.44;;;10.12;65.47
10712;BME280;5407;51.234;6.804;2024-02-26T00:16:50;99297.19;;;10.17;65.69
10712;BME280;5407;51.234;6.804;2024-02-26T00:19:18;99298.19;;;10.02;66.42
10712;BME280;5407;51.234;6.804;2024-02-26T00:21:45;99298.72;;;10.18;66.09
10712;BME280;5407;51.234;6.804;2024-02-26T00:24:12;99306.47;;;10.23;64.86
10712;BME280;5407;51.234;6.804;2024-02-26T00:26:39;99292.59;;;10.21;64.76
10712;BME280;5407;51.234;6.804;2024-02-26T00:29:05;99289.50;;;10.19;64.39
10712;BME280;5407;51.234;6.804;2024-02-26T00:31:32;99286.47;;;10.24;65.10
10712;BME280;5407;51.234;6.804;2024-02-26T00:33:59;99284.91;;;10.23;65.38
10712;BME280;5407;51.234;6.804;2024-02-26T00:36:28;99286.91;;;10.33;65.42
10712;BME280;5407;51.234;6.804;2024-02-26T00:38:55;99295.00;;;10.33;65.13
10712;BME280;5407;51.234;6.804;2024-02-26T00:41:22;99299.63;;;10.32;63.62
10712;BME280;5407;51.234;6.804;2024-02-26T00:43:49;99295.75;;;10.30;64.06
10712;BME280;5407;51.234;6.804;2024-02-26T00:46:15;99289.97;;;10.28;64.53
10712;BME280;5407;51.234;6.804;2024-02-26T00:48:42;99289.09;;;10.17;65.29
10712;BME280;5407;51.234;6.804;2024-02-26T00:51:09;99286.47;;;10.24;65.74
10712;BME280;5407;51.234;6.804;2024-02-26T00:53:38;99294.19;;;10.25;65.65
10712;BME280;5407;51.234;6.804;2024-02-26T00:56:05;99292.25;;;10.22;66.05
10712;BME280;5407;51.234;6.804;2024-02-26T00:58:32;99289.56;;;10.26;65.48
10712;BME280;5407;51.234;6.804;2024-02-26T01:00:59;99290.34;;;10.26;66.10
10712;BME280;5407;51.234;6.804;2024-02-26T01:03:25;99293.41;;;10.25;65.71
10712;BME280;5407;51.234;6.804;2024-02-26T01:05:52;99296.47;;;10.23;65.97
10712;BME280;5407;51.234;6.804;2024-02-26T01:08:19;99292.59;;;10.21;66.22
10712;BME280;5407;51.234;6.804;2024-02-26T01:10:47;99293.41;;;10.25;66.16
10712;BME280;5407;51.234;6.804;2024-02-26T01:13:14;99299.56;;;10.25;66.66
10712;BME280;5407;51.234;6.804;2024-02-26T01:15:41;99293.34;;;10.18;66.61
10712;BME280;5407;51.234;6.804;2024-02-26T01:18:09;99298.78;;;10.25;67.20
10712;BME280;5407;51.234;6.804;2024-02-26T01:20:36;99291.91;;;10.31;67.48
10712;BME280;5407;51.234;6.804;2024-02-26T01:23:03;99298.03;;;10.28;67.36
10712;BME280;5407;51.234;6.804;2024-02-26T01:25:30;99291.09;;;10.23;69.10
10712;BME280;5407;51.234;6.804;2024-02-26T01:27:58;99284.16;;;10.26;68.55
10712;BME280;5407;51.234;6.804;2024-02-26T01:30:25;99291.09;;;10.23;69.28
10712;BME280;5407;51.234;6.804;2024-02-26T01:32:52;99292.25;;;10.22;69.22
10712;BME280;5407;51.234;6.804;2024-02-26T01:35:19;99298.03;;;10.24;69.37
10712;BME280;5407;51.234;6.804;2024-02-26T01:37:46;99294.50;;;10.17;69.85
10712;BME280;5407;51.234;6.804;2024-02-26T01:40:13;99287.16;;;10.14;70.05
10712;BME280;5407;51.234;6.804;2024-02-26T01:42:43;99287.16;;;10.17;70.51
10712;BME280;5407;51.234;6.804;2024-02-26T01:45:15;99287.94;;;10.18;70.96
10712;BME280;5407;51.234;6.804;2024-02-26T01:47:48;99303.09;;;9.97;73.38
10712;BME280;5407;51.234;6.804;2024-02-26T01:50:16;99285.50;;;10.03;73.44
10712;BME280;5407;51.234;6.804;2024-02-26T01:52:44;99283.25;;;10.08;73.90
10712;BME280;5407;51.234;6.804;2024-02-26T01:55:11;99288.97;;;10.03;74.23
10712;BME280;5407;51.234;6.804;2024-02-26T01:57:39;99286.69;;;10.05;76.22
10712;BME280;5407;51.234;6.804;2024-02-26T02:00:07;99285.50;;;10.03;76.07
10712;BME280;5407;51.234;6.804;2024-02-26T02:02:36;99288.34;;;9.84;76.31
10712;BME280;5407;51.234;6.804;2024-02-26T02:05:05;99286.09;;;9.89;77.04
10712;BME280;5407;51.234;6.804;2024-02-26T02:07:32;99289.13;;;9.84;78.16
10712;BME280;5407;51.234;6.804;2024-02-26T02:09:58;99297.59;;;9.86;78.07
10712;BME280;5407;51.234;6.804;2024-02-26T02:12:27;99287.50;;;9.76;79.58
10712;BME280;5407;51.234;6.804;2024-02-26T02:14:54;99296.00;;;9.78;79.87
10712;BME280;5407;51.234;6.804;2024-02-26T02:17:21;99296.72;;;9.75;80.60
10712;BME280;5407;51.234;6.804;2024-02-26T02:19:50;99288.94;;;9.67;81.72
10712;BME280;5407;51.234;6.804;2024-02-26T02:22:18;99299.78;;;9.74;82.05
10712;BME280;5407;51.234;6.804;2024-02-26T02:24:47;99300.09;;;9.69;83.76
10712;BME280;5407;51.234;6.804;2024-02-26T02:27:14;99301.25;;;9.68;84.71
10712;BME280;5407;51.234;6.804;2024-02-26T02:29:41;99297.31;;;9.58;84.20
10712;BME280;5407;51.234;6.804;2024-02-26T02:32:08;99290.38;;;9.57;85.02
10712;BME280;5407;51.234;6.804;2024-02-26T02:34:36;99280.16;;;9.73;85.32
10712;BME280;5407;51.234;6.804;2024-02-26T02:37:03;99284.13;;;9.50;87.28
10712;BME280;5407;51.234;6.804;2024-02-26T02:39:31;99281.72;;;9.41;89.18
10712;BME280;5407;51.234;6.804;2024-02-26T02:41:58;99277.66;;;9.54;88.37
10712;BME280;5407;51.234;6.804;2024-02-26T02:44:25;99284.59;;;9.59;88.71
10712;BME280;5407;51.234;6.804;2024-02-26T02:46:51;99279.09;;;9.48;88.97
10712;BME280;5407;51.234;6.804;2024-02-26T02:49:18;99279.03;;;9.41;90.38
10712;BME280;5407;51.234;6.804;2024-02-26T02:51:45;99279.41;;;9.40;90.36
10712;BME280;5407;51.234;6.804;2024-02-26T02:54:12;99275.19;;;9.42;90.66
10712;BME280;5407;51.234;6.804;2024-02-26T02:56:40;99272.47;;;9.39;90.36
10712;BME280;5407;51.234;6.804;2024-02-26T02:59:07;99274.63;;;9.26;91.20
10712;BME280;5407;51.234;6.804;2024-02-26T03:01:34;99269.81;;;9.42;90.76
10712;BME280;5407;51.234;6.804;2024-02-26T03:04:01;99274.97;;;9.54;90.33
10712;BME280;5407;51.234;6.804;2024-02-26T03:06:28;99276.13;;;9.57;90.75
10712;BME280;5407;51.234;6.804;2024-02-26T03:08:55;99276.97;;;9.31;92.08
10712;BME280;5407;51.234;6.804;2024-02-26T03:11:22;99276.50;;;9.55;90.91
10712;BME280;5407;51.234;6.804;2024-02-26T03:13:50;99281.72;;;9.41;92.09
10712;BME280;5407;51.234;6.804;2024-02-26T03:16:17;99281.72;;;9.41;91.78
10712;BME280;5407;51.234;6.804;2024-02-26T03:18:44;99274.34;;;9.35;91.52
10712;BME280;5407;51.234;6.804;2024-02-26T03:21:11;99279.34;;;9.36;91.62
10712;BME280;5407;51.234;6.804;2024-02-26T03:23:37;99268.28;;;9.12;92.04
10712;BME280;5407;51.234;6.804;2024-02-26T03:26:05;99261.75;;;9.13;92.33
10712;BME280;5407;51.234;6.804;2024-02-26T03:28:31;99269.97;;;9.23;92.62
10712;BME280;5407;51.234;6.804;2024-02-26T03:31:01;99265.25;;;9.17;91.66
10712;BME280;5407;51.234;6.804;2024-02-26T03:33:28;99271.34;;;9.10;91.72
10712;BME280;5407;51.234;6.804;2024-02-26T03:35:54;99262.88;;;9.08;92.88
10712;BME280;5407;51.234;6.804;2024-02-26T03:38:21;99266.78;;;9.14;92.64
10712;BME280;5407;51.234;6.804;2024-02-26T03:40:48;99264.41;;;9.09;92.91
10712;BME280;5407;51.234;6.804;2024-02-26T03:43:16;99260.19;;;9.08;92.33
10712;BME280;5407;51.234;6.804;2024-02-26T03:45:43;99259.31;;;9.01;92.49
10712;BME280;5407;51.234;6.804;2024-02-26T03:48:11;99257.38;;;9.01;93.91
10712;BME280;5407;51.234;6.804;2024-02-26T03:50:38;99262.88;;;9.08;94.20
10712;BME280;5407;51.234;6.804;2024-02-26T03:53:05;99257.38;;;9.01;93.44
10712;BME280;5407;51.234;6.804;2024-02-26T03:55:34;99262.34;;;8.99;93.16
10712;BME280;5407;51.234;6.804;2024-02-26T03:58:01;99266.22;;;9.02;93.46
10712;BME280;5407;51.234;6.804;2024-02-26T04:00:28;99274.44;;;9.12;93.01
10712;BME280;5407;51.234;6.804;2024-02-26T04:02:55;99277.34;;;9.00;92.59
10712;BME280;5407;51.234;6.804;2024-02-26T04:05:23;99274.16;;;8.91;93.58
10712;BME280;5407;51.234;6.804;2024-02-26T04:07:50;99280.34;;;8.95;92.63
10712;BME280;5407;51.234;6.804;2024-02-26T04:10:17;99283.50;;;9.01;92.78
10712;BME280;5407;51.234;6.804;2024-02-26T04:12:44;99279.22;;;8.96;93.64
10712;BME280;5407;51.234;6.804;2024-02-26T04:15:11;99285.41;;;9.00;93.26
10712;BME280;5407;51.234;6.804;2024-02-26T04:17:38;99283.41;;;8.94;93.24
10712;BME280;5407;51.234;6.804;2024-02-26T04:20:06;99285.53;;;8.81;95.18
10712;BME280;5407;51.234;6.804;2024-02-26T04:22:34;99283.25;;;8.83;95.07
10712;BME280;5407;51.234;6.804;2024-02-26T04:25:01;99283.88;;;8.73;94.53
10712;BME280;5407;51.234;6.804;2024-02-26T04:27:28;99284.81;;;8.84;93.54
10712;BME280;5407;51.234;6.804;2024-02-26T04:29:55;99284.25;;;9.01;92.93
10712;BME280;5407;51.234;6.804;2024-02-26T04:32:22;99287.28;;;8.96;92.89
10712;BME280;5407;51.234;6.804;2024-02-26T04:34:48;99294.19;;;8.97;93.19
10712;BME280;5407;51.234;6.804;2024-02-26T04:37:15;99299.31;;;8.80;93.71
10712;BME280;5407;51.234;6.804;2024-02-26T04:39:44;99298.25;;;8.84;93.68
10712;BME280;5407;51.234;6.804;2024-02-26T04:42:11;99296.94;;;8.75;93.32
10712;BME280;5407;51.234;6.804;2024-02-26T04:44:38;99301.59;;;8.78;94.08
10712;BME280;5407;51.234;6.804;2024-02-26T04:47:05;99304.25;;;8.74;93.40
10712;BME280;5407;51.234;6.804;2024-02-26T04:49:33;99304.06;;;8.61;93.37
10712;BME280;5407;51.234;6.804;2024-02-26T04:52:00;99312.88;;;8.61;93.03
10712;BME280;5407;51.234;6.804;2024-02-26T04:54:27;99312.16;;;8.64;94.16
10712;BME280;5407;51.234;6.804;2024-02-26T04:56:55;99312.94;;;8.65;95.23
10712;BME280;5407;51.234;6.804;2024-02-26T04:59:22;99313.50;;;8.51;94.59
10712;BME280;5407;51.234;6.804;2024-02-26T05:01:49;99306.78;;;8.64;94.32
10712;BME280;5407;51.234;6.804;2024-02-26T05:04:17;99298.38;;;8.66;94.02
10712;BME280;5407;51.234;6.804;2024-02-26T05:06:44;99299.81;;;8.60;94.45
10712;BME280;5407;51.234;6.804;2024-02-26T05:09:10;99306.19;;;8.52;94.37
10712;BME280;5407;51.234;6.804;2024-02-26T05:11:37;99305.25;;;8.41;95.38
10712;BME280;5407;51.234;6.804;2024-02-26T05:14:05;99310.31;;;8.46;95.53
10712;BME280;5407;51.234;6.804;2024-02-26T05:16:32;99308.94;;;8.55;95.17
10712;BME280;5407;51.234;6.804;2024-02-26T05:18:59;99313.53;;;8.55;95.37
10712;BME280;5407;51.234;6.804;2024-02-26T05:21:26;99313.41;;;8.48;95.99
10712;BME280;5407;51.234;6.804;2024-02-26T05:23:53;99309.59;;;8.49;95.68
10712;BME280;5407;51.234;6.804;2024-02-26T05:26:20;99326.63;;;8.56;95.78
10712;BME280;5407;51.234;6.804;2024-02-26T05:28:47;99332.47;;;8.62;95.20
10712;BME280;5407;51.234;6.804;2024-02-26T05:31:16;99331.34;;;8.63;95.10
10712;BME280;5407;51.234;6.804;2024-02-26T05:33:43;99339.00;;;8.61;94.64
10712;BME280;5407;51.234;6.804;2024-02-26T05:36:10;99327.38;;;8.57;95.16
10712;BME280;5407;51.234;6.804;2024-02-26T05:38:37;99333.38;;;8.47;95.51
10712;BME280;5407;51.234;6.804;2024-02-26T05:41:04;99333.56;;;8.35;96.14
10712;BME280;5407;51.234;6.804;2024-02-26T05:43:31;99335.63;;;8.45;96.97
10712;BME280;5407;51.234;6.804;2024-02-26T05:45:58;99335.19;;;8.39;97.22
10712;BME280;5407;51.234;6.804;2024-02-26T05:48:26;99341.00;;;8.45;96.43
10712;BME280;5407;51.234;6.804;2024-02-26T05:50:53;99340.91;;;8.38;97.56
10712;BME280;5407;51.234;6.804;2024-02-26T05:53:19;99342.66;;;8.53;96.39
10712;BME280;5407;51.234;6.804;2024-02-26T05:55:46;99345.00;;;8.54;95.70
10712;BME280;5407;51.234;6.804;2024-02-26T05:58:13;99355.38;;;8.56;96.38
10712;BME280;5407;51.234;6.804;2024-02-26T06:00:40;99350.22;;;8.44;97.10
10712;BME280;5407;51.234;6.804;2024-02-26T06:03:07;99348.25;;;8.41;96.77
10712;BME280;5407;51.234;6.804;2024-02-26T06:05:35;99348.19;;;8.37;96.43
10712;BME280;5407;51.234;6.804;2024-02-26T06:08:02;99350.81;;;8.34;97.91
10712;BME280;5407;51.234;6.804;2024-02-26T06:10:29;99355.97;;;8.42;98.28
10712;BME280;5407;51.234;6.804;2024-02-26T06:12:56;99352.25;;;8.28;97.58
10712;BME280;5407;51.234;6.804;2024-02-26T06:15:22;99353.97;;;8.39;96.54
10712;BME280;5407;51.234;6.804;2024-02-26T06:17:49;99361.66;;;8.41;96.88
10712;BME280;5407;51.234;6.804;2024-02-26T06:20:16;99367.41;;;8.39;97.27
10712;BME280;5407;51.234;6.804;2024-02-26T06:22:44;99364.66;;;8.36;98.38
10712;BME280;5407;51.234;6.804;2024-02-26T06:25:11;99373.94;;;8.38;98.13
10712;BME280;5407;51.234;6.804;2024-02-26T06:27:38;99382.75;;;8.39;97.48
10712;BME280;5407;51.234;6.804;2024-02-26T06:30:06;99380.13;;;8.42;98.02
10712;BME280;5407;51.234;6.804;2024-02-26T06:32:34;99390.94;;;8.46;97.77
10712;BME280;5407;51.234;6.804;2024-02-26T06:35:00;99393.06;;;8.37;97.40
10712;BME280;5407;51.234;6.804;2024-02-26T06:37:32;99392.38;;;8.40;97.30
10712;BME280;5407;51.234;6.804;2024-02-26T06:40:00;99405.38;;;8.38;98.28
10712;BME280;5407;51.234;6.804;2024-02-26T06:42:29;99402.28;;;8.36;97.75
10712;BME280;5407;51.234;6.804;2024-02-26T06:44:56;99402.41;;;8.43;97.33
10712;BME280;5407;51.234;6.804;2024-02-26T06:47:23;99409.19;;;8.37;97.84
10712;BME280;5407;51.234;6.804;2024-02-26T06:49:51;99414.81;;;8.51;97.15
10712;BME280;5407;51.234;6.804;2024-02-26T06:52:18;99415.94;;;8.50;97.61
10712;BME280;5407;51.234;6.804;2024-02-26T06:54:45;99417.47;;;8.28;97.83
10712;BME280;5407;51.234;6.804;2024-02-26T06:57:15;99417.84;;;8.27;98.32
10712;BME280;5407;51.234;6.804;2024-02-26T06:59:41;99429.06;;;8.32;98.79
10712;BME280;5407;51.234;6.804;2024-02-26T07:02:11;99432.38;;;8.45;97.63
10712;BME280;5407;51.234;6.804;2024-02-26T07:04:38;99427.72;;;8.42;97.75
10712;BME280;5407;51.234;6.804;2024-02-26T07:07:06;99438.47;;;8.42;98.21
10712;BME280;5407;51.234;6.804;2024-02-26T07:09:33;99431.47;;;8.37;99.14
10712;BME280;5407;51.234;6.804;2024-02-26T07:12:00;99436.06;;;8.37;98.66
10712;BME280;5407;51.234;6.804;2024-02-26T07:14:29;99441.44;;;8.37;98.68
10712;BME280;5407;51.234;6.804;2024-02-26T07:16:56;99444.00;;;8.30;99.04
10712;BME280;5407;51.234;6.804;2024-02-26T07:19:23;99449.91;;;8.39;99.23
10712;BME280;5407;51.234;6.804;2024-02-26T07:21:50;99445.41;;;8.24;100.00
10712;BME280;5407;51.234;6.804;2024-02-26T07:24:17;99448.81;;;8.21;100.00
10712;BME280;5407;51.234;6.804;2024-02-26T07:26:44;99453.75;;;8.38;99.90
10712;BME280;5407;51.234;6.804;2024-02-26T07:29:11;99456.22;;;8.46;99.15
10712;BME280;5407;51.234;6.804;2024-02-26T07:31:39;99459.88;;;8.57;99.50
10712;BME280;5407;51.234;6.804;2024-02-26T07:34:06;99451.00;;;8.57;99.94
10712;BME280;5407;51.234;6.804;2024-02-26T07:36:33;99456.22;;;8.46;100.00
10712;BME280;5407;51.234;6.804;2024-02-26T07:39:00;99450.44;;;8.67;99.85
10712;BME280;5407;51.234;6.804;2024-02-26T07:41:27;99455.22;;;8.76;99.73
10712;BME280;5407;51.234;6.804;2024-02-26T07:43:54;99465.47;;;8.49;99.98
10712;BME280;5407;51.234;6.804;2024-02-26T07:46:21;99459.66;;;8.66;99.78
10712;BME280;5407;51.234;6.804;2024-02-26T07:48:49;99464.19;;;8.62;99.72
10712;BME280;5407;51.234;6.804;2024-02-26T07:51:16;99466.63;;;8.70;98.94
10712;BME280;5407;51.234;6.804;2024-02-26T07:53:43;99474.25;;;8.68;99.73
10712;BME280;5407;51.234;6.804;2024-02-26T07:56:10;99473.09;;;8.66;99.20
10712;BME280;5407;51.234;6.804;2024-02-26T07:58:36;99467.13;;;8.57;99.88
10712;BME280;5407;51.234;6.804;2024-02-26T08:01:03;99481.16;;;8.66;99.72
10712;BME280;5407;51.234;6.804;2024-02-26T08:03:30;99478.16;;;8.70;99.46
10712;BME280;5407;51.234;6.804;2024-02-26T08:05:59;99468.94;;;8.49;100.00
10712;BME280;5407;51.234;6.804;2024-02-26T08:08:25;99486.44;;;8.62;100.00
10712;BME280;5407;51.234;6.804;2024-02-26T08:10:52;99486.53;;;8.66;99.43
10712;BME280;5407;51.234;6.804;2024-02-26T08:13:19;99490.16;;;8.54;99.69
10712;BME280;5407;51.234;6.804;2024-02-26T08:15:46;99498.34;;;8.61;100.00
10712;BME280;5407;51.234;6.804;2024-02-26T08:18:12;99495.78;;;8.68;99.72
10712;BME280;5407;51.234;6.804;2024-02-26T08:20:39;99500.84;;;8.73;99.18
10712;BME280;5407;51.234;6.804;2024-02-26T08:23:07;99503.19;;;8.74;99.87
10712;BME280;5407;51.234;6.804;2024-02-26T08:25:34;99507.44;;;8.75;100.00
10712;BME280;5407;51.234;6.804;2024-02-26T08:28:01;99508.41;;;8.86;99.26
10712;BME280;5407;51.234;6.804;2024-02-26T08:30:28;99504.75;;;8.75;99.80
10712;BME280;5407;51.234;6.804;2024-02-26T08:32:55;99513.06;;;8.89;99.60
10712;BME280;5407;51.234;6.804;2024-02-26T08:35:22;99515.72;;;8.86;99.24
10712;BME280;5407;51.234;6.804;2024-02-26T08:37:48;99511.59;;;8.92;99.13
10712;BME280;5407;51.234;6.804;2024-02-26T08:40:17;99514.91;;;8.85;100.00
10712;BME280;5407;51.234;6.804;2024-02-26T08:42:45;99525.63;;;9.04;99.50
10712;BME280;5407;51.234;6.804;2024-02-26T08:45:12;99518.25;;;8.79;100.00
10712;BME280;5407;51.234;6.804;2024-02-26T08:47:39;99524.00;;;8.77;100.00
10712;BME280;5407;51.234;6.804;2024-02-26T08:50:07;99527.81;;;8.76;100.00
10712;BME280;5407;51.234;6.804;2024-02-26T08:52:35;99538.38;;;8.66;100.00
10712;BME280;5407;51.234;6.804;2024-02-26T08:55:01;99539.91;;;8.67;100.00
10712;BME280;5407;51.234;6.804;2024-02-26T08:57:29;99543.53;;;8.74;99.68
10712;BME280;5407;51.234;6.804;2024-02-26T08:59:58;99546.88;;;8.90;98.89
10712;BME280;5407;51.234;6.804;2024-02-26T09:02:25;99551.88;;;8.69;100.00
10712;BME280;5407;51.234;6.804;2024-02-26T09:04:52;99542.91;;;8.62;100.00
10712;BME280;5407;51.234;6.804;2024-02-26T09:07:20;99546.50;;;8.69;100.00
10712;BME280;5407;51.234;6.804;2024-02-26T09:09:47;99555.13;;;8.78;100.00
10712;BME280;5407;51.234;6.804;2024-02-26T09:12:14;99540.53;;;8.79;100.00
10712;BME280;5407;51.234;6.804;2024-02-26T09:14:42;99547.34;;;8.73;100.00
10712;BME280;5407;51.234;6.804;2024-02-26T09:17:09;99545.28;;;8.86;100.00
10712;BME280;5407;51.234;6.804;2024-02-26T09:19:36;99551.22;;;8.76;100.00
10712;BME280;5407;51.234;6.804;2024-02-26T09:22:03;99554.28;;;8.74;100.00
10712;BME280;5407;51.234;6.804;2024-02-26T09:24:30;99561.41;;;8.67;100.00
10712;BME280;5407;51.234;6.804;2024-02-26T09:26:57;99568.78;;;8.70;100.00
10712;BME280;5407;51.234;6.804;2024-02-26T09:29:23;99564.63;;;8.72;100.00
10712;BME280;5407;51.234;6.804;2024-02-26T09:31:53;99564.19;;;8.70;100.00
10712;BME280;5407;51.234;6.804;2024-02-26T09:34:20;99572.38;;;8.77;100.00
10712;BME280;5407;51.234;6.804;2024-02-26T09:36:46;99563.69;;;8.65;100.00
10712;BME280;5407;51.234;6.804;2024-02-26T09:39:13;99574.88;;;8.67;100.00
10712;BME280;5407;51.234;6.804;2024-02-26T09:41:45;99585.13;;;8.80;100.00
10712;BME280;5407;51.234;6.804;2024-02-26T09:44:16;99582.84;;;8.82;100.00
10712;BME280;5407;51.234;6.804;2024-02-26T09:46:45;99588.56;;;8.81;100.00
10712;BME280;5407;51.234;6.804;2024-02-26T09:49:15;99593.59;;;8.82;100.00
10712;BME280;5407;51.234;6.804;2024-02-26T09:51:42;99599.28;;;8.77;100.00
10712;BME280;5407;51.234;6.804;2024-02-26T09:54:10;99601.97;;;8.77;100.00
10712;BME280;5407;51.234;6.804;2024-02-26T09:56:39;99601.97;;;8.77;100.00
10712;BME280;5407;51.234;6.804;2024-02-26T09:59:10;99613.69;;;8.88;100.00
10712;BME280;5407;51.234;6.804;2024-02-26T10:01:41;99612.94;;;8.88;100.00
10712;BME280;5407;51.234;6.804;2024-02-26T10:04:09;99612.06;;;9.03;100.00
10712;BME280;5407;51.234;6.804;2024-02-26T10:06:38;99620.00;;;8.96;100.00
10712;BME280;5407;51.234;6.804;2024-02-26T10:09:05;99629.84;;;9.07;100.00
10712;BME280;5407;51.234;6.804;2024-02-26T10:11:35;99620.75;;;8.96;100.00
10712;BME280;5407;51.234;6.804;2024-02-26T10:14:04;99628.41;;;8.94;100.00
10712;BME280;5407;51.234;6.804;2024-02-26T10:16:31;99629.47;;;9.09;100.00
10712;BME280;5407;51.234;6.804;2024-02-26T10:19:00;99625.84;;;9.20;100.00
10712;BME280;5407;51.234;6.804;2024-02-26T10:21:26;99636.72;;;9.27;100.00
10712;BME280;5407;51.234;6.804;2024-02-26T10:23:55;99636.72;;;9.27;100.00
10712;BME280;5407;51.234;6.804;2024-02-26T10:26:21;99638.03;;;9.14;100.00
10712;BME280;5407;51.234;6.804;2024-02-26T10:28:49;99637.19;;;9.10;100.00
10712;BME280;5407;51.234;6.804;2024-02-26T10:31:16;99643.47;;;9.18;100.00
10712;BME280;5407;51.234;6.804;2024-02-26T10:33:43;99644.25;;;9.18;100.00
10712;BME280;5407;51.234;6.804;2024-02-26T10:36:10;99646.00;;;9.30;100.00
10712;BME280;5407;51.234;6.804;2024-02-26T10:38:38;99652.38;;;9.22;100.00
10712;BME280;5407;51.234;6.804;2024-02-26T10:41:06;99656.94;;;9.40;100.00
10712;BME280;5407;51.234;6.804;2024-02-26T10:43:33;99665.09;;;9.44;100.00
10712;BME280;5407;51.234;6.804;2024-02-26T10:46:00;99659.50;;;9.33;100.00
10712;BME280;5407;51.234;6.804;2024-02-26T10:48:27;99666.28;;;9.46;100.00
10712;BME280;5407;51.234;6.804;2024-02-26T10:50:54;99666.13;;;9.17;100.00
10712;BME280;5407;51.234;6.804;2024-02-26T10:53:23;99667.16;;;9.31;100.00
10712;BME280;5407;51.234;6.804;2024-02-26T10:55:54;99672.94;;;9.30;100.00
10712;BME280;5407;51.234;6.804;2024-02-26T10:58:25;99670.69;;;9.35;100.00
10712;BME280;5407;51.234;6.804;2024-02-26T11:00:52;99674.97;;;9.17;100.00
10712;BME280;5407;51.234;6.804;2024-02-26T11:03:20;99672.25;;;9.36;100.00
10712;BME280;5407;51.234;6.804;2024-02-26T11:05:48;99677.38;;;9.22;100.00
10712;BME280;5407;51.234;6.804;2024-02-26T11:08:16;99685.97;;;9.50;100.00
10712;BME280;5407;51.234;6.804;2024-02-26T11:10:47;99695.91;;;9.46;100.00
10712;BME280;5407;51.234;6.804;2024-02-26T11:13:15;99692.63;;;9.56;100.00
10712;BME280;5407;51.234;6.804;2024-02-26T11:15:46;99690.78;;;9.60;100.00
10712;BME280;5407;51.234;6.804;2024-02-26T11:18:15;99687.09;;;9.49;100.00
10712;BME280;5407;51.234;6.804;2024-02-26T11:20:42;99693.41;;;9.79;100.00
10712;BME280;5407;51.234;6.804;2024-02-26T11:23:10;99704.50;;;9.74;100.00
10712;BME280;5407;51.234;6.804;2024-02-26T11:25:37;99697.13;;;9.71;100.00
10712;BME280;5407;51.234;6.804;2024-02-26T11:28:07;99700.16;;;9.70;100.00
10712;BME280;5407;51.234;6.804;2024-02-26T11:30:38;99700.00;;;9.59;100.00
10712;BME280;5407;51.234;6.804;2024-02-26T11:33:08;99701.84;;;9.55;100.00
10712;BME280;5407;51.234;6.804;2024-02-26T11:35:38;99706.69;;;9.69;100.00
10712;BME280;5407;51.234;6.804;2024-02-26T11:38:05;99706.75;;;9.72;100.00
10712;BME280;5407;51.234;6.804;2024-02-26T11:40:33;99705.44;;;9.63;100.00
10712;BME280;5407;51.234;6.804;2024-02-26T11:43:05;99715.19;;;9.71;100.00
10712;BME280;5407;51.234;6.804;2024-02-26T11:45:52;99713.75;;;9.35;100.00
10712;BME280;5407;51.234;6.804;2024-02-26T11:48:24;99714.81;;;9.50;100.00
10712;BME280;5407;51.234;6.804;2024-02-26T11:50:53;99714.81;;;9.50;100.00
10712;BME280;5407;51.234;6.804;2024-02-26T11:53:24;99715.56;;;9.50;100.00
10712;BME280;5407;51.234;6.804;2024-02-26T11:56:12;99715.84;;;9.64;100.00
10712;BME280;5407;51.234;6.804;2024-02-26T11:58:39;99714.25;;;9.41;100.00
10712;BME280;5407;51.234;6.804;2024-02-26T12:01:43;99718.72;;;9.52;100.00
10712;BME280;5407;51.234;6.804;2024-02-26T12:04:17;99724.16;;;9.56;100.00
10712;BME280;5407;51.234;6.804;2024-02-26T12:06:46;99722.66;;;9.58;100.00
10712;BME280;5407;51.234;6.804;2024-02-26T12:09:13;99733.66;;;9.50;100.00
10712;BME280;5407;51.234;6.804;2024-02-26T12:11:40;99733.44;;;9.39;100.00
10712;BME280;5407;51.234;6.804;2024-02-26T12:14:09;99737.97;;;9.35;100.00
10712;BME280;5407;51.234;6.804;2024-02-26T12:16:37;99738.25;;;9.49;100.00
10712;BME280;5407;51.234;6.804;2024-02-26T12:19:05;99737.41;;;9.45;100.00
10712;BME280;5407;51.234;6.804;2024-02-26T12:21:35;99741.84;;;9.57;100.00
10712;BME280;5407;51.234;6.804;2024-02-26T12:24:14;99738.28;;;9.30;100.00
10712;BME280;5407;51.234;6.804;2024-02-26T12:26:41;99740.88;;;9.46;100.00
10712;BME280;5407;51.234;6.804;2024-02-26T12:29:08;99739.25;;;9.41;100.00
10712;BME280;5407;51.234;6.804;2024-02-26T12:31:37;99749.47;;;9.51;100.00
10712;BME280;5407;51.234;6.804;2024-02-26T12:34:04;99743.91;;;9.63;100.00
10712;BME280;5407;51.234;6.804;2024-02-26T12:36:32;99748.16;;;9.64;100.00
10712;BME280;5407;51.234;6.804;2024-02-26T12:39:02;99755.19;;;9.50;100.00
10712;BME280;5407;51.234;6.804;2024-02-26T12:41:31;99762.75;;;9.63;100.00
10712;BME280;5407;51.234;6.804;2024-02-26T12:43:59;99764.91;;;9.54;100.00
10712;BME280;5407;51.234;6.804;2024-02-26T12:46:26;99763.75;;;9.36;100.00
10712;BME280;5407;51.234;6.804;2024-02-26T12:48:55;99776.09;;;9.56;100.00
10712;BME280;5407;51.234;6.804;2024-02-26T12:51:24;99777.03;;;9.45;100.00
10712;BME280;5407;51.234;6.804;2024-02-26T12:53:51;99776.66;;;9.27;100.00
10712;BME280;5407;51.234;6.804;2024-02-26T12:56:21;99777.03;;;9.45;100.00
10712;BME280;5407;51.234;6.804;2024-02-26T12:58:49;99787.00;;;9.44;100.00
10712;BME280;5407;51.234;6.804;2024-02-26T13:01:18;99785.44;;;9.43;100.00
10712;BME280;5407;51.234;6.804;2024-02-26T13:03:46;99796.00;;;9.33;100.00
10712;BME280;5407;51.234;6.804;2024-02-26T13:06:13;99790.41;;;9.22;100.00
10712;BME280;5407;51.234;6.804;2024-02-26T13:08:40;99801.31;;;9.29;100.00
10712;BME280;5407;51.234;6.804;2024-02-26T13:11:07;99809.28;;;9.26;100.00
10712;BME280;5407;51.234;6.804;2024-02-26T13:13:36;99809.66;;;9.24;100.00
10712;BME280;5407;51.234;6.804;2024-02-26T13:16:04;99808.72;;;9.17;100.00
10712;BME280;5407;51.234;6.804;2024-02-26T13:18:38;99805.25;;;9.16;100.00
10712;BME280;5407;51.234;6.804;2024-02-26T13:21:09;99822.84;;;9.29;100.00